sensor_id;sensor_type;location;lat;lon;timestamp;temperature;humidity
14170;DHT22;63889;50.596;8.690;2023-07-30T00:01:11;19.30;99.90
14170;DHT22;63889;50.596;8.690;2023-07-30T00:03:37;19.30;99.90
14170;DHT22;63889;50.596;8.690;2023-07-30T00:06:02;19.40;99.90
14170;DHT22;63889;50.596;8.690;2023-07-30T00:08:28;19.40;99.90
14170;DHT22;63889;50.596;8.690;2023-07-30T00:10:56;19.40;99.90
14170;DHT22;63889;50.596;8.690;2023-07-30T00:13:22;19.40;99.90
14170;DHT22;63889;50.596;8.690;2023-07-30T00:15:47;19.50;99.90
14170;DHT22;63889;50.596;8.690;2023-07-30T00:18:14;19.50;99.90
14170;DHT22;63889;50.596;8.690;2023-07-30T00:20:39;19.60;99.90
14170;DHT22;63889;50.596;8.690;2023-07-30T00:23:05;19.60;99.90
14170;DHT22;63889;50.596;8.690;2023-07-30T00:25:30;19.70;99.90
14170;DHT22;63889;50.596;8.690;2023-07-30T00:27:56;19.70;99.90
14170;DHT22;63889;50.596;8.690;2023-07-30T00:30:21;19.70;99.90
14170;DHT22;63889;50.596;8.690;2023-07-30T00:32:47;19.80;99.90
14170;DHT22;63889;50.596;8.690;2023-07-30T00:35:12;19.90;99.90
14170;DHT22;63889;50.596;8.690;2023-07-30T00:37:38;19.90;99.90
14170;DHT22;63889;50.596;8.690;2023-07-30T00:40:04;19.90;99.90
14170;DHT22;63889;50.596;8.690;2023-07-30T00:42:30;19.80;99.90
14170;DHT22;63889;50.596;8.690;2023-07-30T00:44:55;19.80;99.90
14170;DHT22;63889;50.596;8.690;2023-07-30T00:47:22;19.80;99.90
14170;DHT22;63889;50.596;8.690;2023-07-30T00:49:48;19.70;99.90
14170;DHT22;63889;50.596;8.690;2023-07-30T00:52:16;19.70;99.90
14170;DHT22;63889;50.596;8.690;2023-07-30T00:54:42;19.70;99.90
14170;DHT22;63889;50.596;8.690;2023-07-30T00:57:09;19.60;99.90
14170;DHT22;63889;50.596;8.690;2023-07-30T00:59:34;19.50;99.90
14170;DHT22;63889;50.596;8.690;2023-07-30T01:02:00;19.50;99.90
14170;DHT22;63889;50.596;8.690;2023-07-30T01:04:28;19.30;99.90
14170;DHT22;63889;50.596;8.690;2023-07-30T01:06:54;19.20;99.90
14170;DHT22;63889;50.596;8.690;2023-07-30T01:09:19;18.90;99.90
14170;DHT22;63889;50.596;8.690;2023-07-30T01:11:45;18.80;99.90
14170;DHT22;63889;50.596;8.690;2023-07-30T01:14:12;18.70;99.90
14170;DHT22;63889;50.596;8.690;2023-07-30T01:16:39;18.70;99.90
14170;DHT22;63889;50.596;8.690;2023-07-30T01:19:06;18.70;99.90
14170;DHT22;63889;50.596;8.690;2023-07-30T01:21:35;18.70;99.90
14170;DHT22;63889;50.596;8.690;2023-07-30T01:24:01;18.70;99.90
14170;DHT22;63889;50.596;8.690;2023-07-30T01:26:55;18.70;99.90
14170;DHT22;63889;50.596;8.690;2023-07-30T01:29:37;18.60;99.90
14170;DHT22;63889;50.596;8.690;2023-07-30T01:32:06;18.60;99.90
14170;DHT22;63889;50.596;8.690;2023-07-30T01:34:35;18.60;99.90
14170;DHT22;63889;50.596;8.690;2023-07-30T01:37:01;18.60;99.90
14170;DHT22;63889;50.596;8.690;2023-07-30T01:39:27;18.60;99.90
14170;DHT22;63889;50.596;8.690;2023-07-30T01:41:54;18.60;99.90
14170;DHT22;63889;50.596;8.690;2023-07-30T01:44:20;18.60;99.90
14170;DHT22;63889;50.596;8.690;2023-07-30T01:46:45;18.50;99.90
14170;DHT22;63889;50.596;8.690;2023-07-30T01:49:11;18.50;99.90
14170;DHT22;63889;50.596;8.690;2023-07-30T01:51:36;18.50;99.90
14170;DHT22;63889;50.596;8.690;2023-07-30T01:54:02;18.40;99.90
14170;DHT22;63889;50.596;8.690;2023-07-30T01:56:28;18.40;99.90
14170;DHT22;63889;50.596;8.690;2023-07-30T01:58:53;18.40;99.90
14170;DHT22;63889;50.596;8.690;2023-07-30T02:01:19;18.40;99.90
14170;DHT22;63889;50.596;8.690;2023-07-30T02:03:45;18.50;99.90
14170;DHT22;63889;50.596;8.690;2023-07-30T02:06:11;18.70;99.90
14170;DHT22;63889;50.596;8.690;2023-07-30T02:08:37;18.80;99.90
14170;DHT22;63889;50.596;8.690;2023-07-30T02:11:02;18.70;99.90
14170;DHT22;63889;50.596;8.690;2023-07-30T02:13:28;18.70;99.90
14170;DHT22;63889;50.596;8.690;2023-07-30T02:15:54;18.70;99.90
14170;DHT22;63889;50.596;8.690;2023-07-30T02:18:19;18.60;99.90
14170;DHT22;63889;50.596;8.690;2023-07-30T02:20:45;18.50;99.90
14170;DHT22;63889;50.596;8.690;2023-07-30T02:23:10;18.40;99.90
14170;DHT22;63889;50.596;8.690;2023-07-30T02:25:37;18.30;99.90
14170;DHT22;63889;50.596;8.690;2023-07-30T02:28:03;18.20;99.90
14170;DHT22;63889;50.596;8.690;2023-07-30T02:30:30;18.20;99.90
14170;DHT22;63889;50.596;8.690;2023-07-30T02:32:55;18.20;99.90
14170;DHT22;63889;50.596;8.690;2023-07-30T02:35:21;18.10;99.90
14170;DHT22;63889;50.596;8.690;2023-07-30T02:37:46;18.10;99.90
14170;DHT22;63889;50.596;8.690;2023-07-30T02:40:12;18.10;99.90
14170;DHT22;63889;50.596;8.690;2023-07-30T02:42:37;18.10;99.90
14170;DHT22;63889;50.596;8.690;2023-07-30T02:45:03;18.10;99.90
14170;DHT22;63889;50.596;8.690;2023-07-30T02:47:30;18.10;99.90
14170;DHT22;63889;50.596;8.690;2023-07-30T02:49:55;18.10;99.90
14170;DHT22;63889;50.596;8.690;2023-07-30T02:52:21;18.10;99.90
14170;DHT22;63889;50.596;8.690;2023-07-30T02:54:46;18.10;99.90
14170;DHT22;63889;50.596;8.690;2023-07-30T02:57:12;18.10;99.90
14170;DHT22;63889;50.596;8.690;2023-07-30T02:59:38;18.10;99.90
14170;DHT22;63889;50.596;8.690;2023-07-30T03:02:04;18.10;99.90
14170;DHT22;63889;50.596;8.690;2023-07-30T03:04:33;18.10;99.90
14170;DHT22;63889;50.596;8.690;2023-07-30T03:06:58;18.10;99.90
14170;DHT22;63889;50.596;8.690;2023-07-30T03:09:24;18.10;99.90
14170;DHT22;63889;50.596;8.690;2023-07-30T03:11:50;18.10;99.90
14170;DHT22;63889;50.596;8.690;2023-07-30T03:14:15;18.10;99.90
14170;DHT22;63889;50.596;8.690;2023-07-30T03:16:41;18.00;99.90
14170;DHT22;63889;50.596;8.690;2023-07-30T03:19:06;18.00;99.90
14170;DHT22;63889;50.596;8.690;2023-07-30T03:21:32;18.00;99.90
14170;DHT22;63889;50.596;8.690;2023-07-30T03:23:57;18.00;99.90
14170;DHT22;63889;50.596;8.690;2023-07-30T03:26:23;18.00;99.90
14170;DHT22;63889;50.596;8.690;2023-07-30T03:28:49;18.00;99.90
14170;DHT22;63889;50.596;8.690;2023-07-30T03:31:15;17.80;99.90
14170;DHT22;63889;50.596;8.690;2023-07-30T03:33:43;17.70;99.90
14170;DHT22;63889;50.596;8.690;2023-07-30T03:36:10;17.80;99.90
14170;DHT22;63889;50.596;8.690;2023-07-30T03:38:36;17.80;99.90
14170;DHT22;63889;50.596;8.690;2023-07-30T03:41:02;17.80;99.90
14170;DHT22;63889;50.596;8.690;2023-07-30T03:43:29;17.80;99.90
14170;DHT22;63889;50.596;8.690;2023-07-30T03:45:55;17.80;99.90
14170;DHT22;63889;50.596;8.690;2023-07-30T03:48:20;17.80;99.90
14170;DHT22;63889;50.596;8.690;2023-07-30T03:50:46;17.70;99.90
14170;DHT22;63889;50.596;8.690;2023-07-30T03:53:11;17.80;99.90
14170;DHT22;63889;50.596;8.690;2023-07-30T03:55:37;17.70;99.90
14170;DHT22;63889;50.596;8.690;2023-07-30T03:58:02;17.70;99.90
14170;DHT22;63889;50.596;8.690;2023-07-30T04:00:28;17.70;99.90
14170;DHT22;63889;50.596;8.690;2023-07-30T04:02:54;17.60;99.90
14170;DHT22;63889;50.596;8.690;2023-07-30T04:05:20;17.60;99.90
14170;DHT22;63889;50.596;8.690;2023-07-30T04:07:45;17.60;99.90
14170;DHT22;63889;50.596;8.690;2023-07-30T04:10:11;17.50;99.90
14170;DHT22;63889;50.596;8.690;2023-07-30T04:12:37;17.40;99.90
14170;DHT22;63889;50.596;8.690;2023-07-30T04:15:02;17.50;99.90
14170;DHT22;63889;50.596;8.690;2023-07-30T04:17:28;17.60;99.90
14170;DHT22;63889;50.596;8.690;2023-07-30T04:19:54;17.50;99.90
14170;DHT22;63889;50.596;8.690;2023-07-30T04:22:19;17.50;99.90
14170;DHT22;63889;50.596;8.690;2023-07-30T04:24:45;17.50;99.90
14170;DHT22;63889;50.596;8.690;2023-07-30T04:27:10;17.50;99.90
14170;DHT22;63889;50.596;8.690;2023-07-30T04:29:36;17.50;99.90
14170;DHT22;63889;50.596;8.690;2023-07-30T04:32:01;17.50;99.90
14170;DHT22;63889;50.596;8.690;2023-07-30T04:34:27;17.60;99.90
14170;DHT22;63889;50.596;8.690;2023-07-30T04:36:52;17.60;99.90
14170;DHT22;63889;50.596;8.690;2023-07-30T04:39:18;17.70;99.90
14170;DHT22;63889;50.596;8.690;2023-07-30T04:41:43;17.70;99.90
14170;DHT22;63889;50.596;8.690;2023-07-30T04:44:09;17.60;99.90
14170;DHT22;63889;50.596;8.690;2023-07-30T04:46:34;17.50;99.90
14170;DHT22;63889;50.596;8.690;2023-07-30T04:49:02;17.60;99.90
14170;DHT22;63889;50.596;8.690;2023-07-30T04:51:28;17.50;99.90
14170;DHT22;63889;50.596;8.690;2023-07-30T04:53:54;17.50;99.90
14170;DHT22;63889;50.596;8.690;2023-07-30T04:56:19;17.50;99.90
14170;DHT22;63889;50.596;8.690;2023-07-30T04:58:45;17.50;99.90
14170;DHT22;63889;50.596;8.690;2023-07-30T05:01:10;17.40;99.90
14170;DHT22;63889;50.596;8.690;2023-07-30T05:03:36;17.40;99.90
14170;DHT22;63889;50.596;8.690;2023-07-30T05:06:01;17.40;99.90
14170;DHT22;63889;50.596;8.690;2023-07-30T05:08:27;17.50;99.90
14170;DHT22;63889;50.596;8.690;2023-07-30T05:10:53;17.50;99.90
14170;DHT22;63889;50.596;8.690;2023-07-30T05:13:18;17.60;99.90
14170;DHT22;63889;50.596;8.690;2023-07-30T05:15:44;17.70;99.90
14170;DHT22;63889;50.596;8.690;2023-07-30T05:18:10;17.70;99.90
14170;DHT22;63889;50.596;8.690;2023-07-30T05:20:35;17.90;99.90
14170;DHT22;63889;50.596;8.690;2023-07-30T05:23:01;18.00;99.90
14170;DHT22;63889;50.596;8.690;2023-07-30T05:25:28;18.10;99.90
14170;DHT22;63889;50.596;8.690;2023-07-30T05:27:53;18.20;99.90
14170;DHT22;63889;50.596;8.690;2023-07-30T05:30:19;18.50;99.90
14170;DHT22;63889;50.596;8.690;2023-07-30T05:32:44;18.60;99.90
14170;DHT22;63889;50.596;8.690;2023-07-30T05:35:10;18.70;99.90
14170;DHT22;63889;50.596;8.690;2023-07-30T05:37:35;18.70;99.90
14170;DHT22;63889;50.596;8.690;2023-07-30T05:40:01;18.80;99.90
14170;DHT22;63889;50.596;8.690;2023-07-30T05:42:26;18.80;99.90
14170;DHT22;63889;50.596;8.690;2023-07-30T05:44:52;18.90;99.90
14170;DHT22;63889;50.596;8.690;2023-07-30T05:47:17;18.80;99.90
14170;DHT22;63889;50.596;8.690;2023-07-30T05:49:43;18.90;99.90
14170;DHT22;63889;50.596;8.690;2023-07-30T05:52:08;19.00;99.90
14170;DHT22;63889;50.596;8.690;2023-07-30T05:54:34;19.00;99.90
14170;DHT22;63889;50.596;8.690;2023-07-30T05:56:59;19.00;99.90
14170;DHT22;63889;50.596;8.690;2023-07-30T05:59:25;19.00;99.90
14170;DHT22;63889;50.596;8.690;2023-07-30T06:01:50;19.10;99.90
14170;DHT22;63889;50.596;8.690;2023-07-30T06:04:16;19.00;99.90
14170;DHT22;63889;50.596;8.690;2023-07-30T06:06:41;19.20;99.90
14170;DHT22;63889;50.596;8.690;2023-07-30T06:09:07;19.30;99.90
14170;DHT22;63889;50.596;8.690;2023-07-30T06:11:33;19.30;99.90
14170;DHT22;63889;50.596;8.690;2023-07-30T06:13:59;19.40;99.90
14170;DHT22;63889;50.596;8.690;2023-07-30T06:16:24;19.40;99.90
14170;DHT22;63889;50.596;8.690;2023-07-30T06:18:50;19.50;99.90
14170;DHT22;63889;50.596;8.690;2023-07-30T06:21:15;19.50;99.90
14170;DHT22;63889;50.596;8.690;2023-07-30T06:23:41;19.50;99.90
14170;DHT22;63889;50.596;8.690;2023-07-30T06:26:06;19.50;99.90
14170;DHT22;63889;50.596;8.690;2023-07-30T06:28:32;19.60;99.90
14170;DHT22;63889;50.596;8.690;2023-07-30T06:31:02;19.60;99.90
14170;DHT22;63889;50.596;8.690;2023-07-30T06:33:28;19.60;99.90
14170;DHT22;63889;50.596;8.690;2023-07-30T06:35:53;19.60;99.90
14170;DHT22;63889;50.596;8.690;2023-07-30T06:38:19;19.60;99.90
14170;DHT22;63889;50.596;8.690;2023-07-30T06:40:44;19.70;99.90
14170;DHT22;63889;50.596;8.690;2023-07-30T06:43:10;19.70;99.90
14170;DHT22;63889;50.596;8.690;2023-07-30T06:45:35;19.70;99.90
14170;DHT22;63889;50.596;8.690;2023-07-30T06:48:01;19.80;99.90
14170;DHT22;63889;50.596;8.690;2023-07-30T06:50:26;19.90;99.90
14170;DHT22;63889;50.596;8.690;2023-07-30T06:52:52;20.10;99.90
14170;DHT22;63889;50.596;8.690;2023-07-30T06:55:17;20.10;99.90
14170;DHT22;63889;50.596;8.690;2023-07-30T06:57:43;20.30;99.90
14170;DHT22;63889;50.596;8.690;2023-07-30T07:00:09;20.30;99.90
14170;DHT22;63889;50.596;8.690;2023-07-30T07:02:34;20.20;99.90
14170;DHT22;63889;50.596;8.690;2023-07-30T07:05:00;20.30;99.90
14170;DHT22;63889;50.596;8.690;2023-07-30T07:07:25;20.30;99.90
14170;DHT22;63889;50.596;8.690;2023-07-30T07:09:51;20.20;99.90
14170;DHT22;63889;50.596;8.690;2023-07-30T07:12:17;20.30;99.90
14170;DHT22;63889;50.596;8.690;2023-07-30T07:14:42;20.20;99.90
14170;DHT22;63889;50.596;8.690;2023-07-30T07:17:08;20.10;99.90
14170;DHT22;63889;50.596;8.690;2023-07-30T07:19:34;20.10;99.90
14170;DHT22;63889;50.596;8.690;2023-07-30T07:22:05;20.10;99.90
14170;DHT22;63889;50.596;8.690;2023-07-30T07:24:31;20.10;99.90
14170;DHT22;63889;50.596;8.690;2023-07-30T07:26:57;20.10;99.90
14170;DHT22;63889;50.596;8.690;2023-07-30T07:29:22;20.20;99.90
14170;DHT22;63889;50.596;8.690;2023-07-30T07:31:48;20.30;99.90
14170;DHT22;63889;50.596;8.690;2023-07-30T07:34:13;20.30;99.90
14170;DHT22;63889;50.596;8.690;2023-07-30T07:36:39;20.30;99.90
14170;DHT22;63889;50.596;8.690;2023-07-30T07:39:05;20.30;99.90
14170;DHT22;63889;50.596;8.690;2023-07-30T07:41:31;20.30;99.90
14170;DHT22;63889;50.596;8.690;2023-07-30T07:43:57;20.40;99.90
14170;DHT22;63889;50.596;8.690;2023-07-30T07:46:23;20.40;99.90
14170;DHT22;63889;50.596;8.690;2023-07-30T07:48:48;20.40;99.90
14170;DHT22;63889;50.596;8.690;2023-07-30T07:51:14;20.50;99.90
14170;DHT22;63889;50.596;8.690;2023-07-30T07:53:39;20.50;99.90
14170;DHT22;63889;50.596;8.690;2023-07-30T07:56:05;20.50;99.90
14170;DHT22;63889;50.596;8.690;2023-07-30T07:58:31;20.60;99.90
14170;DHT22;63889;50.596;8.690;2023-07-30T08:00:57;20.50;99.90
14170;DHT22;63889;50.596;8.690;2023-07-30T08:03:23;20.50;99.90
14170;DHT22;63889;50.596;8.690;2023-07-30T08:05:49;20.50;99.90
14170;DHT22;63889;50.596;8.690;2023-07-30T08:08:15;20.50;99.90
14170;DHT22;63889;50.596;8.690;2023-07-30T08:10:41;20.50;99.90
14170;DHT22;63889;50.596;8.690;2023-07-30T08:13:11;20.50;99.90
14170;DHT22;63889;50.596;8.690;2023-07-30T08:15:37;20.50;99.90
14170;DHT22;63889;50.596;8.690;2023-07-30T08:18:02;20.50;99.90
14170;DHT22;63889;50.596;8.690;2023-07-30T08:20:28;20.50;99.90
14170;DHT22;63889;50.596;8.690;2023-07-30T08:22:53;20.50;99.90
14170;DHT22;63889;50.596;8.690;2023-07-30T08:25:19;20.50;99.90
14170;DHT22;63889;50.596;8.690;2023-07-30T08:27:45;20.50;99.90
14170;DHT22;63889;50.596;8.690;2023-07-30T08:30:11;20.50;99.90
14170;DHT22;63889;50.596;8.690;2023-07-30T08:32:37;20.50;99.90
14170;DHT22;63889;50.596;8.690;2023-07-30T08:35:03;20.50;99.90
14170;DHT22;63889;50.596;8.690;2023-07-30T08:37:29;20.50;99.90
14170;DHT22;63889;50.596;8.690;2023-07-30T08:39:54;20.50;99.90
14170;DHT22;63889;50.596;8.690;2023-07-30T08:42:20;20.50;99.90
14170;DHT22;63889;50.596;8.690;2023-07-30T08:44:45;20.40;99.90
14170;DHT22;63889;50.596;8.690;2023-07-30T08:47:11;20.30;99.90
14170;DHT22;63889;50.596;8.690;2023-07-30T08:49:37;20.20;99.90
14170;DHT22;63889;50.596;8.690;2023-07-30T08:52:03;20.00;99.90
14170;DHT22;63889;50.596;8.690;2023-07-30T08:54:31;20.00;99.90
14170;DHT22;63889;50.596;8.690;2023-07-30T08:56:58;20.10;99.90
14170;DHT22;63889;50.596;8.690;2023-07-30T08:59:24;20.10;99.90
14170;DHT22;63889;50.596;8.690;2023-07-30T09:01:53;20.10;99.90
14170;DHT22;63889;50.596;8.690;2023-07-30T09:04:19;20.10;99.90
14170;DHT22;63889;50.596;8.690;2023-07-30T09:06:49;20.10;99.90
14170;DHT22;63889;50.596;8.690;2023-07-30T09:09:15;20.20;99.90
14170;DHT22;63889;50.596;8.690;2023-07-30T09:11:41;20.30;99.90
14170;DHT22;63889;50.596;8.690;2023-07-30T09:14:07;20.10;99.90
14170;DHT22;63889;50.596;8.690;2023-07-30T09:16:34;20.00;99.90
14170;DHT22;63889;50.596;8.690;2023-07-30T09:19:00;20.00;99.90
14170;DHT22;63889;50.596;8.690;2023-07-30T09:21:32;20.00;99.90
14170;DHT22;63889;50.596;8.690;2023-07-30T09:24:02;20.00;99.90
14170;DHT22;63889;50.596;8.690;2023-07-30T09:26:40;19.90;99.90
14170;DHT22;63889;50.596;8.690;2023-07-30T09:29:10;19.70;99.90
14170;DHT22;63889;50.596;8.690;2023-07-30T09:31:53;19.80;99.90
14170;DHT22;63889;50.596;8.690;2023-07-30T09:34:24;19.70;99.90
14170;DHT22;63889;50.596;8.690;2023-07-30T09:36:52;19.60;99.90
14170;DHT22;63889;50.596;8.690;2023-07-30T09:39:21;19.30;99.90
14170;DHT22;63889;50.596;8.690;2023-07-30T09:41:47;19.10;99.90
14170;DHT22;63889;50.596;8.690;2023-07-30T09:44:13;19.10;99.90
14170;DHT22;63889;50.596;8.690;2023-07-30T09:46:48;18.80;99.90
14170;DHT22;63889;50.596;8.690;2023-07-30T09:49:18;18.60;99.90
14170;DHT22;63889;50.596;8.690;2023-07-30T09:51:44;18.50;99.90
14170;DHT22;63889;50.596;8.690;2023-07-30T09:54:14;18.40;99.90
14170;DHT22;63889;50.596;8.690;2023-07-30T09:56:41;18.40;99.90
14170;DHT22;63889;50.596;8.690;2023-07-30T09:59:08;18.30;99.90
14170;DHT22;63889;50.596;8.690;2023-07-30T10:01:46;18.20;99.90
14170;DHT22;63889;50.596;8.690;2023-07-30T10:04:15;18.20;99.90
14170;DHT22;63889;50.596;8.690;2023-07-30T10:07:11;18.20;99.90
14170;DHT22;63889;50.596;8.690;2023-07-30T10:09:40;18.20;99.90
14170;DHT22;63889;50.596;8.690;2023-07-30T10:12:12;18.10;99.90
14170;DHT22;63889;50.596;8.690;2023-07-30T10:14:40;18.10;99.90
14170;DHT22;63889;50.596;8.690;2023-07-30T10:17:10;18.10;99.90
14170;DHT22;63889;50.596;8.690;2023-07-30T10:19:36;18.40;99.90
14170;DHT22;63889;50.596;8.690;2023-07-30T10:22:20;18.60;99.90
14170;DHT22;63889;50.596;8.690;2023-07-30T10:25:05;18.60;99.90
14170;DHT22;63889;50.596;8.690;2023-07-30T10:27:38;18.60;99.90
14170;DHT22;63889;50.596;8.690;2023-07-30T10:30:15;18.90;99.90
14170;DHT22;63889;50.596;8.690;2023-07-30T10:35:44;19.10;99.90
14170;DHT22;63889;50.596;8.690;2023-07-30T10:38:29;19.20;99.90
14170;DHT22;63889;50.596;8.690;2023-07-30T10:41:13;19.30;99.90
14170;DHT22;63889;50.596;8.690;2023-07-30T10:43:40;19.30;99.90
14170;DHT22;63889;50.596;8.690;2023-07-30T10:46:10;19.30;99.90
14170;DHT22;63889;50.596;8.690;2023-07-30T10:48:38;19.20;99.90
14170;DHT22;63889;50.596;8.690;2023-07-30T10:51:14;19.20;99.90
14170;DHT22;63889;50.596;8.690;2023-07-30T10:53:48;19.40;99.90
14170;DHT22;63889;50.596;8.690;2023-07-30T10:56:20;19.40;99.90
14170;DHT22;63889;50.596;8.690;2023-07-30T10:58:49;19.50;99.90
14170;DHT22;63889;50.596;8.690;2023-07-30T11:01:16;19.60;99.90
14170;DHT22;63889;50.596;8.690;2023-07-30T11:03:41;19.70;99.90
14170;DHT22;63889;50.596;8.690;2023-07-30T11:06:07;19.90;99.90
14170;DHT22;63889;50.596;8.690;2023-07-30T11:08:37;20.10;99.90
14170;DHT22;63889;50.596;8.690;2023-07-30T11:11:03;20.20;99.90
14170;DHT22;63889;50.596;8.690;2023-07-30T11:13:28;20.30;99.90
14170;DHT22;63889;50.596;8.690;2023-07-30T11:15:54;20.10;99.90
14170;DHT22;63889;50.596;8.690;2023-07-30T11:18:20;20.10;99.90
14170;DHT22;63889;50.596;8.690;2023-07-30T11:20:45;20.30;99.90
14170;DHT22;63889;50.596;8.690;2023-07-30T11:23:22;20.40;99.90
14170;DHT22;63889;50.596;8.690;2023-07-30T11:25:50;20.50;99.90
14170;DHT22;63889;50.596;8.690;2023-07-30T11:28:36;20.30;99.90
14170;DHT22;63889;50.596;8.690;2023-07-30T11:31:07;20.30;99.90
14170;DHT22;63889;50.596;8.690;2023-07-30T11:33:38;20.30;99.90
14170;DHT22;63889;50.596;8.690;2023-07-30T11:36:04;20.20;99.90
14170;DHT22;63889;50.596;8.690;2023-07-30T11:38:31;20.30;99.90
14170;DHT22;63889;50.596;8.690;2023-07-30T11:40:57;20.20;99.90
14170;DHT22;63889;50.596;8.690;2023-07-30T11:43:23;20.20;99.90
14170;DHT22;63889;50.596;8.690;2023-07-30T11:45:49;20.00;99.90
14170;DHT22;63889;50.596;8.690;2023-07-30T11:48:30;19.70;99.90
14170;DHT22;63889;50.596;8.690;2023-07-30T11:50:56;19.60;99.90
14170;DHT22;63889;50.596;8.690;2023-07-30T11:53:21;19.70;99.90
14170;DHT22;63889;50.596;8.690;2023-07-30T11:55:47;19.80;99.90
14170;DHT22;63889;50.596;8.690;2023-07-30T11:58:13;19.80;99.90
14170;DHT22;63889;50.596;8.690;2023-07-30T12:00:39;19.70;99.90
14170;DHT22;63889;50.596;8.690;2023-07-30T12:03:07;19.50;99.90
14170;DHT22;63889;50.596;8.690;2023-07-30T12:05:36;19.50;99.90
14170;DHT22;63889;50.596;8.690;2023-07-30T12:08:03;19.60;99.90
14170;DHT22;63889;50.596;8.690;2023-07-30T12:10:42;19.60;99.90
14170;DHT22;63889;50.596;8.690;2023-07-30T12:13:18;19.60;99.90
14170;DHT22;63889;50.596;8.690;2023-07-30T12:15:53;19.60;99.90
14170;DHT22;63889;50.596;8.690;2023-07-30T12:18:20;19.80;99.90
14170;DHT22;63889;50.596;8.690;2023-07-30T12:20:49;19.90;99.90
14170;DHT22;63889;50.596;8.690;2023-07-30T12:23:16;20.00;99.90
14170;DHT22;63889;50.596;8.690;2023-07-30T12:25:42;20.30;99.90
14170;DHT22;63889;50.596;8.690;2023-07-30T12:28:07;20.60;99.90
14170;DHT22;63889;50.596;8.690;2023-07-30T12:30:33;21.10;99.90
14170;DHT22;63889;50.596;8.690;2023-07-30T12:32:58;21.30;99.90
14170;DHT22;63889;50.596;8.690;2023-07-30T12:35:24;21.20;99.90
14170;DHT22;63889;50.596;8.690;2023-07-30T12:37:50;20.90;99.90
14170;DHT22;63889;50.596;8.690;2023-07-30T12:40:16;20.80;99.90
14170;DHT22;63889;50.596;8.690;2023-07-30T12:42:42;21.20;99.90
14170;DHT22;63889;50.596;8.690;2023-07-30T12:45:08;21.90;99.90
14170;DHT22;63889;50.596;8.690;2023-07-30T12:47:34;23.00;99.90
14170;DHT22;63889;50.596;8.690;2023-07-30T12:50:03;24.20;99.90
14170;DHT22;63889;50.596;8.690;2023-07-30T12:52:29;24.80;99.90
14170;DHT22;63889;50.596;8.690;2023-07-30T12:54:54;25.10;99.90
14170;DHT22;63889;50.596;8.690;2023-07-30T12:57:20;25.10;99.90
14170;DHT22;63889;50.596;8.690;2023-07-30T12:59:46;25.00;99.90
14170;DHT22;63889;50.596;8.690;2023-07-30T13:02:11;24.80;99.90
14170;DHT22;63889;50.596;8.690;2023-07-30T13:04:37;24.40;99.90
14170;DHT22;63889;50.596;8.690;2023-07-30T13:07:02;23.80;99.90
14170;DHT22;63889;50.596;8.690;2023-07-30T13:09:28;23.30;99.90
14170;DHT22;63889;50.596;8.690;2023-07-30T13:11:54;23.10;99.90
14170;DHT22;63889;50.596;8.690;2023-07-30T13:14:19;22.60;99.90
14170;DHT22;63889;50.596;8.690;2023-07-30T13:16:45;22.30;99.90
14170;DHT22;63889;50.596;8.690;2023-07-30T13:19:10;22.20;99.90
14170;DHT22;63889;50.596;8.690;2023-07-30T13:21:36;22.30;99.90
14170;DHT22;63889;50.596;8.690;2023-07-30T13:24:02;22.50;99.90
14170;DHT22;63889;50.596;8.690;2023-07-30T13:26:28;22.70;99.90
14170;DHT22;63889;50.596;8.690;2023-07-30T13:28:53;22.80;99.90
14170;DHT22;63889;50.596;8.690;2023-07-30T13:31:19;22.90;99.90
14170;DHT22;63889;50.596;8.690;2023-07-30T13:33:45;23.00;99.90
14170;DHT22;63889;50.596;8.690;2023-07-30T13:36:12;23.10;99.90
14170;DHT22;63889;50.596;8.690;2023-07-30T13:38:38;23.10;99.90
14170;DHT22;63889;50.596;8.690;2023-07-30T13:41:05;23.10;99.90
14170;DHT22;63889;50.596;8.690;2023-07-30T13:43:31;23.30;99.90
14170;DHT22;63889;50.596;8.690;2023-07-30T13:45:57;23.40;99.90
14170;DHT22;63889;50.596;8.690;2023-07-30T13:48:26;23.50;99.90
14170;DHT22;63889;50.596;8.690;2023-07-30T13:50:52;23.50;99.90
14170;DHT22;63889;50.596;8.690;2023-07-30T13:53:18;23.60;99.90
14170;DHT22;63889;50.596;8.690;2023-07-30T13:55:44;23.50;99.90
14170;DHT22;63889;50.596;8.690;2023-07-30T13:58:10;23.50;99.90
14170;DHT22;63889;50.596;8.690;2023-07-30T14:00:35;23.30;99.90
14170;DHT22;63889;50.596;8.690;2023-07-30T14:03:01;23.10;99.90
14170;DHT22;63889;50.596;8.690;2023-07-30T14:05:26;22.90;99.90
14170;DHT22;63889;50.596;8.690;2023-07-30T14:07:55;22.80;99.90
14170;DHT22;63889;50.596;8.690;2023-07-30T14:10:22;22.70;99.90
14170;DHT22;63889;50.596;8.690;2023-07-30T14:12:48;22.50;99.90
14170;DHT22;63889;50.596;8.690;2023-07-30T14:15:14;22.40;99.90
14170;DHT22;63889;50.596;8.690;2023-07-30T14:17:40;22.30;99.90
14170;DHT22;63889;50.596;8.690;2023-07-30T14:20:06;22.30;99.90
14170;DHT22;63889;50.596;8.690;2023-07-30T14:22:32;22.20;99.90
14170;DHT22;63889;50.596;8.690;2023-07-30T14:24:58;22.30;99.90
14170;DHT22;63889;50.596;8.690;2023-07-30T14:27:24;22.50;99.90
14170;DHT22;63889;50.596;8.690;2023-07-30T14:29:50;22.50;99.90
14170;DHT22;63889;50.596;8.690;2023-07-30T14:32:17;22.60;99.90
14170;DHT22;63889;50.596;8.690;2023-07-30T14:34:43;22.90;99.90
14170;DHT22;63889;50.596;8.690;2023-07-30T14:37:08;23.10;99.90
14170;DHT22;63889;50.596;8.690;2023-07-30T14:39:34;23.10;99.90
14170;DHT22;63889;50.596;8.690;2023-07-30T14:41:59;23.00;99.90
14170;DHT22;63889;50.596;8.690;2023-07-30T14:44:25;23.10;99.90
14170;DHT22;63889;50.596;8.690;2023-07-30T14:46:50;23.00;99.90
14170;DHT22;63889;50.596;8.690;2023-07-30T14:49:16;22.60;99.90
14170;DHT22;63889;50.596;8.690;2023-07-30T14:51:42;22.50;99.90
14170;DHT22;63889;50.596;8.690;2023-07-30T14:54:08;22.40;99.90
14170;DHT22;63889;50.596;8.690;2023-07-30T14:56:35;22.40;99.90
14170;DHT22;63889;50.596;8.690;2023-07-30T14:59:01;22.60;99.90
14170;DHT22;63889;50.596;8.690;2023-07-30T15:01:29;22.70;99.90
14170;DHT22;63889;50.596;8.690;2023-07-30T15:03:54;22.80;99.90
14170;DHT22;63889;50.596;8.690;2023-07-30T15:06:20;22.80;99.90
14170;DHT22;63889;50.596;8.690;2023-07-30T15:08:46;22.80;99.90
14170;DHT22;63889;50.596;8.690;2023-07-30T15:11:12;22.70;99.90
14170;DHT22;63889;50.596;8.690;2023-07-30T15:13:39;22.60;99.90
14170;DHT22;63889;50.596;8.690;2023-07-30T15:16:05;22.40;99.90
14170;DHT22;63889;50.596;8.690;2023-07-30T15:18:31;22.40;99.90
14170;DHT22;63889;50.596;8.690;2023-07-30T15:20:56;22.30;99.90
14170;DHT22;63889;50.596;8.690;2023-07-30T15:23:22;22.40;99.90
14170;DHT22;63889;50.596;8.690;2023-07-30T15:25:47;22.60;99.90
14170;DHT22;63889;50.596;8.690;2023-07-30T15:28:14;22.80;99.90
14170;DHT22;63889;50.596;8.690;2023-07-30T15:30:40;22.90;99.90